Time;durP1;ratioP1;P1;durP2;ratioP2;P2;SDS_P1;SDS_P2;PMS_P1;PMS_P2;Temp;Humidity;BMP_temperature;BMP_pressure;BME280_temperature;BME280_humidity;BME280_pressure;Samples;Min_cycle;Max_cycle;Signal;HPM_P1;HPM_P2
2022/11/04 00:01:21;;;;;;;19.45;14.95;;;;;;;;;;5053114;28;20071;-83
2022/11/04 00:03:47;;;;;;;20.25;18.10;;;;;;;;;;5023738;28;20116;-81
2022/11/04 00:06:18;;;;;;;57.58;33.53;;;;;;;;;;5052918;28;20017;-79
2022/11/04 00:08:54;;;;;;;31.75;21.73;;;;;;;;;;5031030;28;20104;-82
2022/11/04 00:14:07;;;;;;;28.95;20.13;;;;;;;;;;5049170;28;20039;-82
2022/11/04 00:19:18;;;;;;;20.45;14.55;;;;;;;;;;5047137;28;20059;-82
2022/11/04 00:29:40;;;;;;;22.50;13.60;;;;;;;;;;5050608;28;20478;-82
2022/11/04 00:34:52;;;;;;;8.45;6.10;;;;;;;;;;5057868;28;20039;-82
2022/11/04 00:37:18;;;;;;;11.85;10.77;;;;;;;;;;5041783;28;20033;-82
2022/11/04 00:39:45;;;;;;;18.05;8.88;;;;;;;;;;5034852;28;20027;-82
2022/11/04 00:42:11;;;;;;;5.68;5.15;;;;;;;;;;5052319;28;20044;-82
2022/11/04 00:44:38;;;;;;;20.00;11.82;;;;;;;;;;5044778;28;20028;-82
2022/11/04 00:47:05;;;;;;;5.63;5.10;;;;;;;;;;5052536;28;20032;-82
2022/11/04 00:49:31;;;;;;;6.18;5.75;;;;;;;;;;5034017;28;20040;-82
2022/11/04 00:51:57;;;;;;;11.55;7.30;;;;;;;;;;5041085;28;20025;-82
2022/11/04 00:54:23;;;;;;;11.95;10.95;;;;;;;;;;5029189;28;20045;-82
2022/11/04 00:56:50;;;;;;;24.10;16.13;;;;;;;;;;5040092;28;20035;-82
2022/11/04 00:59:17;;;;;;;23.45;7.90;;;;;;;;;;5051159;28;20017;-82
2022/11/04 01:01:43;;;;;;;46.00;24.27;;;;;;;;;;5049789;28;20411;-82
2022/11/04 01:04:09;;;;;;;34.83;17.45;;;;;;;;;;5045622;28;20025;-81
2022/11/04 01:06:36;;;;;;;5.85;5.45;;;;;;;;;;5040189;28;20104;-82
2022/11/04 01:09:04;;;;;;;24.55;7.88;;;;;;;;;;5048985;28;20032;-82
2022/11/04 01:11:42;;;;;;;20.88;12.95;;;;;;;;;;5053341;28;20058;-82
2022/11/04 01:14:08;;;;;;;23.13;13.20;;;;;;;;;;5053264;28;20017;-82
2022/11/04 01:16:35;;;;;;;33.55;16.25;;;;;;;;;;5050948;28;20025;-82
2022/11/04 01:19:01;;;;;;;15.02;9.10;;;;;;;;;;5045703;28;20562;-83
2022/11/04 01:21:28;;;;;;;10.95;9.00;;;;;;;;;;5025002;28;20021;-82
2022/11/04 01:23:54;;;;;;;4.47;3.25;;;;;;;;;;5044352;28;20498;-83
2022/11/04 01:26:21;;;;;;;11.70;8.15;;;;;;;;;;5043662;28;20025;-83
2022/11/04 01:28:48;;;;;;;12.52;8.20;;;;;;;;;;5034826;28;20016;-83
2022/11/04 01:31:16;;;;;;;21.70;12.10;;;;;;;;;;5051269;28;20136;-82
2022/11/04 01:33:42;;;;;;;22.85;13.90;;;;;;;;;;5051770;28;20419;-82
2022/11/04 01:36:09;;;;;;;25.90;13.25;;;;;;;;;;5047940;28;20068;-83
2022/11/04 01:38:36;;;;;;;8.20;7.10;;;;;;;;;;5036673;28;20032;-83
2022/11/04 01:41:06;;;;;;;5.68;4.90;;;;;;;;;;5034671;28;20047;-80
2022/11/04 01:43:45;;;;;;;5.50;4.47;;;;;;;;;;5029929;28;20062;-83
2022/11/04 01:46:14;;;;;;;3.53;3.33;;;;;;;;;;5056059;28;20021;-83
2022/11/04 01:48:41;;;;;;;8.25;4.90;;;;;;;;;;5020934;28;20043;-82
2022/11/04 01:51:07;;;;;;;21.20;13.57;;;;;;;;;;5030360;28;20116;-82
2022/11/04 01:53:42;;;;;;;13.57;7.63;;;;;;;;;;5035619;28;20029;-83
2022/11/04 01:56:13;;;;;;;12.57;8.65;;;;;;;;;;5052534;28;20025;-83
2022/11/04 01:58:43;;;;;;;11.30;7.30;;;;;;;;;;5033358;28;20049;-83
2022/11/04 02:01:10;;;;;;;8.35;5.07;;;;;;;;;;5054405;28;20021;-83
2022/11/04 02:03:43;;;;;;;9.95;8.90;;;;;;;;;;5053294;28;20516;-82
2022/11/04 02:06:10;;;;;;;14.70;4.15;;;;;;;;;;5043115;28;20025;-83
2022/11/04 02:08:38;;;;;;;20.75;13.25;;;;;;;;;;5049449;28;20075;-83
2022/11/04 02:11:04;;;;;;;29.88;10.30;;;;;;;;;;5037000;28;20025;-84
2022/11/04 02:13:32;;;;;;;7.93;5.55;;;;;;;;;;5035198;28;20041;-83
2022/11/04 02:16:09;;;;;;;16.92;11.25;;;;;;;;;;5032699;28;20116;-83
2022/11/04 02:18:46;;;;;;;23.90;11.13;;;;;;;;;;5038430;28;20344;-83
2022/11/04 02:21:47;;;;;;;14.23;7.18;;;;;;;;;;5033925;28;20050;-83
2022/11/04 02:24:25;;;;;;;24.50;13.98;;;;;;;;;;4956733;28;20405;-83
2022/11/04 02:27:10;;;;;;;16.88;11.50;;;;;;;;;;5021236;28;20029;-83
2022/11/04 02:29:43;;;;;;;17.45;10.35;;;;;;;;;;5032964;28;20025;-83
2022/11/04 02:32:09;;;;;;;17.77;10.02;;;;;;;;;;5052180;28;20340;-84
2022/11/04 02:34:41;;;;;;;27.75;12.32;;;;;;;;;;5055868;28;20021;-82
2022/11/04 02:37:11;;;;;;;16.67;7.38;;;;;;;;;;5053184;28;20024;-83
2022/11/04 02:39:41;;;;;;;15.85;10.68;;;;;;;;;;5046047;28;20359;-84
2022/11/04 02:42:10;;;;;;;3.63;3.28;;;;;;;;;;5051007;28;20016;-83
2022/11/04 02:44:48;;;;;;;4.45;2.92;;;;;;;;;;5047547;28;20067;-82
2022/11/04 02:47:19;;;;;;;7.00;3.83;;;;;;;;;;5035265;28;20425;-82
2022/11/04 02:49:55;;;;;;;10.98;5.97;;;;;;;;;;5037305;28;20029;-84
2022/11/04 02:55:38;;;;;;;9.00;8.20;;;;;;;;;;5022682;28;20087;-83
2022/11/04 02:58:06;;;;;;;13.90;8.02;;;;;;;;;;5000602;28;20098;-83
2022/11/04 03:00:33;;;;;;;19.73;8.05;;;;;;;;;;5026767;28;20109;-83
2022/11/04 03:03:02;;;;;;;44.72;6.43;;;;;;;;;;5025542;28;20029;-82
2022/11/04 03:05:32;;;;;;;20.48;7.93;;;;;;;;;;5010201;28;20057;-81
2022/11/04 03:08:00;;;;;;;23.73;12.05;;;;;;;;;;5023370;28;20135;-81
2022/11/04 03:10:34;;;;;;;17.70;8.63;;;;;;;;;;5015905;28;20030;-83
2022/11/04 03:13:19;;;;;;;3.47;3.17;;;;;;;;;;4981015;28;20133;-82
2022/11/04 03:15:52;;;;;;;2.80;2.60;;;;;;;;;;4989258;28;20105;-83
2022/11/04 03:18:24;;;;;;;4.07;3.60;;;;;;;;;;4992229;28;20034;-81
2022/11/04 03:20:51;;;;;;;27.65;12.50;;;;;;;;;;4987115;28;20600;-83
2022/11/04 03:23:18;;;;;;;1.75;1.65;;;;;;;;;;4985317;28;20026;-84
2022/11/04 03:25:45;;;;;;;4.90;4.55;;;;;;;;;;4980078;28;20034;-84
2022/11/04 03:28:24;;;;;;;6.85;4.13;;;;;;;;;;4983168;28;20524;-84
2022/11/04 03:30:52;;;;;;;11.57;6.00;;;;;;;;;;4985279;28;20106;-84
2022/11/04 03:33:26;;;;;;;1.95;1.85;;;;;;;;;;4985019;28;20073;-85
2022/11/04 03:35:52;;;;;;;11.05;5.55;;;;;;;;;;4987756;28;20026;-85
2022/11/04 03:38:20;;;;;;;14.23;7.28;;;;;;;;;;4982314;28;20042;-84
2022/11/04 03:40:46;;;;;;;11.32;7.80;;;;;;;;;;4995905;28;20031;-83
2022/11/04 03:43:26;;;;;;;12.52;7.70;;;;;;;;;;4983252;28;20038;-84
2022/11/04 03:45:54;;;;;;;3.88;3.33;;;;;;;;;;4994684;28;20057;-83
2022/11/04 03:48:24;;;;;;;2.42;2.30;;;;;;;;;;4987898;28;20057;-84
2022/11/04 03:50:53;;;;;;;19.27;7.88;;;;;;;;;;4988562;28;20027;-84
2022/11/04 03:53:21;;;;;;;3.28;2.97;;;;;;;;;;5000189;28;20038;-84
2022/11/04 03:55:50;;;;;;;4.38;2.17;;;;;;;;;;4986045;28;20118;-82
2022/11/04 03:58:24;;;;;;;12.48;5.82;;;;;;;;;;4985077;28;20100;-84
2022/11/04 04:00:53;;;;;;;0.00;0.00;;;;;;;;;;4984273;28;20380;-83
2022/11/04 04:03:34;;;;;;;7.78;4.20;;;;;;;;;;4984389;28;20026;-83
2022/11/04 04:06:16;;;;;;;4.47;2.92;;;;;;;;;;4981588;28;20042;-82
2022/11/04 04:08:46;;;;;;;10.07;5.60;;;;;;;;;;4986075;28;20034;-82
2022/11/04 04:11:44;;;;;;;8.07;3.65;;;;;;;;;;4980250;28;20397;-83
2022/11/04 04:14:38;;;;;;;16.30;8.30;;;;;;;;;;4996939;28;20068;-82
2022/11/04 04:17:06;;;;;;;15.55;7.85;;;;;;;;;;5021638;28;20046;-82
2022/11/04 04:19:33;;;;;;;9.70;7.50;;;;;;;;;;5045486;28;20044;-82
2022/11/04 04:22:06;;;;;;;4.10;3.72;;;;;;;;;;5033998;28;20034;-81
2022/11/04 04:27:30;;;;;;;6.15;5.72;;;;;;;;;;5033485;28;20155;-84
2022/11/04 04:29:57;;;;;;;3.83;1.85;;;;;;;;;;5030736;28;20038;-82
2022/11/04 04:32:25;;;;;;;13.30;7.45;;;;;;;;;;5026663;28;20034;-85
2022/11/04 04:35:40;;;;;;;15.63;14.40;;;;;;;;;;5009141;28;20412;-85
2022/11/04 04:37:52;;;;;;;7.32;5.40;;;;;;;;;;5023009;28;20038;-85
2022/11/04 04:46:14;;;;;;;6.70;6.40;;;;;;;;;;5024908;28;20139;-85
2022/11/04 04:48:42;;;;;;;0.20;0.20;;;;;;;;;;5002996;28;20037;-85
2022/11/04 04:51:25;;;;;;;16.55;6.22;;;;;;;;;;5024852;28;20150;-85
2022/11/04 04:53:56;;;;;;;0.43;0.43;;;;;;;;;;5001541;28;20037;-87
2022/11/04 04:56:25;;;;;;;0.68;0.68;;;;;;;;;;5006267;28;20040;-83
2022/11/04 04:58:59;;;;;;;0.98;0.65;;;;;;;;;;4999998;28;20092;-84
2022/11/04 05:01:28;;;;;;;0.38;0.38;;;;;;;;;;5025267;28;20079;-84
2022/11/04 05:04:00;;;;;;;5.65;5.40;;;;;;;;;;5030654;28;20037;-84
2022/11/04 05:06:34;;;;;;;0.93;0.93;;;;;;;;;;5007186;28;20030;-84
2022/11/04 05:15:13;;;;;;;8.65;4.13;;;;;;;;;;5030393;28;20052;-84
2022/11/04 05:20:44;;;;;;;5.05;3.70;;;;;;;;;;5027738;28;20032;-84
2022/11/04 05:23:11;;;;;;;3.78;3.47;;;;;;;;;;5026567;28;20069;-84
2022/11/04 05:25:40;;;;;;;0.70;0.70;;;;;;;;;;5008707;28;20039;-84
2022/11/04 05:28:06;;;;;;;0.00;0.00;;;;;;;;;;5024973;28;20038;-82
2022/11/04 05:33:36;;;;;;;8.52;7.65;;;;;;;;;;5022780;28;20028;-83
2022/11/04 05:42:10;;;;;;;0.80;0.80;;;;;;;;;;5026609;28;20406;-84
2022/11/04 05:44:36;;;;;;;8.27;5.03;;;;;;;;;;5029686;28;20096;-84
2022/11/04 05:47:23;;;;;;;20.73;13.10;;;;;;;;;;5012596;28;20038;-84
2022/11/04 05:49:52;;;;;;;26.25;11.15;;;;;;;;;;5007764;28;20041;-83
2022/11/04 05:52:18;;;;;;;4.45;1.17;;;;;;;;;;5025754;28;20044;-84
2022/11/04 05:54:45;;;;;;;11.80;5.60;;;;;;;;;;5026836;28;20029;-84
2022/11/04 05:57:11;;;;;;;15.85;7.68;;;;;;;;;;5003505;28;20036;-84
2022/11/04 05:59:38;;;;;;;0.98;0.98;;;;;;;;;;5028765;28;20084;-86
2022/11/04 06:02:04;;;;;;;0.47;0.47;;;;;;;;;;5020807;28;20036;-85
2022/11/04 06:04:31;;;;;;;2.53;1.85;;;;;;;;;;5028573;28;20033;-83
2022/11/04 06:06:58;;;;;;;9.52;6.78;;;;;;;;;;5021909;28;20021;-83
2022/11/04 06:09:37;;;;;;;4.15;3.85;;;;;;;;;;5020342;28;20033;-85
2022/11/04 06:12:08;;;;;;;0.85;0.85;;;;;;;;;;5010660;28;20092;-84
2022/11/04 06:14:34;;;;;;;4.47;4.07;;;;;;;;;;4994951;28;20057;-84
2022/11/04 06:17:01;;;;;;;0.45;0.45;;;;;;;;;;4980612;28;20591;-83
2022/11/04 06:19:27;;;;;;;0.03;0.03;;;;;;;;;;4990041;28;20041;-84
2022/11/04 06:21:57;;;;;;;2.35;2.20;;;;;;;;;;5006690;28;20027;-84
2022/11/04 06:24:26;;;;;;;0.30;0.30;;;;;;;;;;4990161;28;20295;-83
2022/11/04 06:26:52;;;;;;;0.52;0.52;;;;;;;;;;4993786;28;20030;-85
2022/11/04 06:29:18;;;;;;;0.32;0.32;;;;;;;;;;4995377;28;20078;-83
2022/11/04 06:32:03;;;;;;;0.15;0.15;;;;;;;;;;5006945;28;20020;-83
2022/11/04 06:34:35;;;;;;;0.00;0.00;;;;;;;;;;5004491;28;20029;-83
2022/11/04 06:37:02;;;;;;;0.52;0.52;;;;;;;;;;5005026;28;20079;-84
2022/11/04 06:39:28;;;;;;;0.00;0.00;;;;;;;;;;5008016;28;20034;-84
2022/11/04 06:41:55;;;;;;;0.00;0.00;;;;;;;;;;5007349;28;20095;-84
2022/11/04 06:44:21;;;;;;;1.17;1.17;;;;;;;;;;5007934;28;20022;-84
2022/11/04 06:46:48;;;;;;;1.42;1.42;;;;;;;;;;5006592;28;20347;-86
2022/11/04 06:49:16;;;;;;;0.25;0.25;;;;;;;;;;5009928;28;20366;-84
2022/11/04 06:52:01;;;;;;;0.00;0.00;;;;;;;;;;5006772;28;20026;-84
2022/11/04 06:54:27;;;;;;;0.25;0.25;;;;;;;;;;4998045;28;20376;-83
2022/11/04 06:56:54;;;;;;;2.92;2.65;;;;;;;;;;5011232;28;20429;-85
2022/11/04 06:59:20;;;;;;;4.57;4.38;;;;;;;;;;4989401;28;20088;-86
2022/11/04 07:01:49;;;;;;;0.00;0.00;;;;;;;;;;5011528;28;20033;-84
2022/11/04 07:04:37;;;;;;;0.00;0.00;;;;;;;;;;5012204;28;20042;-83
2022/11/04 07:07:41;;;;;;;0.30;0.30;;;;;;;;;;5005517;28;20190;-85
2022/11/04 07:10:16;;;;;;;1.48;1.42;;;;;;;;;;4994311;28;20702;-84
2022/11/04 07:13:15;;;;;;;0.35;0.35;;;;;;;;;;5020815;28;20138;-84
2022/11/04 07:15:42;;;;;;;0.00;0.00;;;;;;;;;;5051999;28;20055;-84
2022/11/04 07:18:08;;;;;;;1.08;1.02;;;;;;;;;;5052014;28;20495;-84
2022/11/04 07:20:36;;;;;;;0.00;0.00;;;;;;;;;;5047527;28;20029;-85
2022/11/04 07:23:05;;;;;;;0.80;0.80;;;;;;;;;;5043804;28;20045;-85
2022/11/04 07:25:34;;;;;;;1.38;1.35;;;;;;;;;;5027506;28;20120;-85
2022/11/04 07:28:04;;;;;;;0.93;0.93;;;;;;;;;;5047950;28;20043;-84
2022/11/04 07:30:31;;;;;;;0.30;0.30;;;;;;;;;;5049012;28;20037;-84
2022/11/04 07:33:01;;;;;;;0.00;0.00;;;;;;;;;;5032042;28;20082;-85
2022/11/04 07:35:27;;;;;;;0.00;0.00;;;;;;;;;;5022242;28;20490;-84
2022/11/04 07:37:55;;;;;;;1.85;1.75;;;;;;;;;;5042632;28;20036;-84
2022/11/04 07:40:21;;;;;;;0.00;0.00;;;;;;;;;;5030843;28;20036;-86
2022/11/04 07:42:47;;;;;;;0.03;0.03;;;;;;;;;;5017405;28;20022;-85
2022/11/04 07:45:14;;;;;;;0.00;0.00;;;;;;;;;;5043935;28;20557;-84
2022/11/04 07:47:40;;;;;;;4.57;4.25;;;;;;;;;;5053389;28;20352;-85
2022/11/04 07:50:07;;;;;;;2.45;2.35;;;;;;;;;;5033672;28;20055;-84
2022/11/04 07:52:33;;;;;;;0.50;0.47;;;;;;;;;;5054539;28;20515;-85
2022/11/04 07:55:00;;;;;;;0.20;0.20;;;;;;;;;;5052341;28;20039;-84
2022/11/04 07:57:28;;;;;;;0.00;0.00;;;;;;;;;;5050691;28;20039;-84
2022/11/04 07:59:55;;;;;;;1.00;0.30;;;;;;;;;;5031805;28;20048;-84
2022/11/04 08:02:21;;;;;;;0.00;0.00;;;;;;;;;;5036800;28;20417;-85
2022/11/04 08:04:49;;;;;;;0.30;0.30;;;;;;;;;;5049596;28;20471;-85
2022/11/04 08:07:16;;;;;;;0.00;0.00;;;;;;;;;;5052247;28;20037;-84
2022/11/04 08:09:42;;;;;;;0.00;0.00;;;;;;;;;;5021545;28;20126;-85
2022/11/04 08:12:09;;;;;;;1.25;1.25;;;;;;;;;;5021905;28;20036;-84
2022/11/04 08:14:36;;;;;;;1.80;1.73;;;;;;;;;;5023477;28;20132;-86
2022/11/04 08:17:02;;;;;;;0.00;0.00;;;;;;;;;;5025988;28;20138;-83
2022/11/04 08:19:30;;;;;;;0.00;0.00;;;;;;;;;;5023928;28;20029;-84
2022/11/04 08:21:56;;;;;;;1.58;1.48;;;;;;;;;;5023115;28;20379;-83
2022/11/04 08:24:24;;;;;;;0.10;0.10;;;;;;;;;;5023767;28;20021;-84
2022/11/04 08:26:50;;;;;;;4.15;3.80;;;;;;;;;;5033191;28;20040;-86
2022/11/04 08:29:16;;;;;;;0.00;0.00;;;;;;;;;;5020827;28;20141;-85
2022/11/04 08:31:43;;;;;;;0.00;0.00;;;;;;;;;;5026854;28;20079;-85
2022/11/04 08:34:09;;;;;;;0.95;0.80;;;;;;;;;;5039366;28;20037;-85
2022/11/04 08:36:39;;;;;;;0.00;0.00;;;;;;;;;;5040590;28;20017;-85
2022/11/04 08:39:07;;;;;;;1.90;1.77;;;;;;;;;;5030980;28;20034;-85
2022/11/04 08:41:33;;;;;;;1.02;1.02;;;;;;;;;;5030866;28;20561;-86
2022/11/04 08:44:02;;;;;;;0.00;0.00;;;;;;;;;;5031665;28;20052;-86
2022/11/04 08:46:29;;;;;;;0.00;0.00;;;;;;;;;;5034115;28;20033;-85
2022/11/04 08:48:55;;;;;;;1.30;1.30;;;;;;;;;;5038164;28;20024;-85
2022/11/04 08:51:23;;;;;;;0.00;0.00;;;;;;;;;;5035447;28;20499;-85
2022/11/04 08:53:52;;;;;;;0.57;0.57;;;;;;;;;;5032564;28;20076;-85
2022/11/04 08:56:24;;;;;;;0.30;0.30;;;;;;;;;;5030529;28;20091;-84
2022/11/04 08:58:50;;;;;;;0.00;0.00;;;;;;;;;;5026235;28;20039;-85
2022/11/04 09:01:17;;;;;;;0.00;0.00;;;;;;;;;;5026779;28;20074;-85
2022/11/04 09:03:46;;;;;;;0.55;0.55;;;;;;;;;;5029243;28;20030;-84
2022/11/04 09:06:14;;;;;;;8.57;6.28;;;;;;;;;;5027924;28;20029;-85
2022/11/04 09:08:42;;;;;;;0.98;0.63;;;;;;;;;;5028404;28;20423;-85
2022/11/04 09:11:10;;;;;;;0.82;0.80;;;;;;;;;;5025605;28;20116;-84
2022/11/04 09:13:37;;;;;;;0.03;0.03;;;;;;;;;;5035783;28;20184;-85
2022/11/04 09:16:03;;;;;;;5.28;4.82;;;;;;;;;;5027646;28;20030;-85
2022/11/04 09:18:30;;;;;;;0.00;0.00;;;;;;;;;;5027189;28;20087;-85
2022/11/04 09:20:59;;;;;;;11.20;8.77;;;;;;;;;;5023646;28;20099;-85
2022/11/04 09:23:26;;;;;;;0.00;0.00;;;;;;;;;;5030326;28;20430;-85
2022/11/04 09:25:52;;;;;;;2.03;1.92;;;;;;;;;;5036994;28;20017;-85
2022/11/04 09:28:18;;;;;;;3.92;2.35;;;;;;;;;;5041353;28;20052;-85
2022/11/04 09:30:45;;;;;;;0.00;0.00;;;;;;;;;;5044639;28;20033;-85
2022/11/04 09:33:11;;;;;;;2.45;0.32;;;;;;;;;;5044492;28;20047;-85
2022/11/04 09:35:40;;;;;;;42.67;38.85;;;;;;;;;;5051868;28;20013;-85
2022/11/04 09:38:07;;;;;;;0.47;0.47;;;;;;;;;;5049643;28;20081;-85
2022/11/04 09:40:34;;;;;;;1.45;0.63;;;;;;;;;;5047290;28;20037;-86
2022/11/04 09:43:06;;;;;;;0.00;0.00;;;;;;;;;;5050861;28;20113;-85
2022/11/04 09:45:33;;;;;;;0.00;0.00;;;;;;;;;;5031177;28;20069;-86
2022/11/04 09:48:12;;;;;;;0.60;0.52;;;;;;;;;;5020800;28;20391;-86
2022/11/04 09:51:05;;;;;;;0.00;0.00;;;;;;;;;;5031773;28;20421;-85
2022/11/04 09:53:40;;;;;;;0.25;0.25;;;;;;;;;;5026095;28;20042;-85
2022/11/04 09:56:12;;;;;;;4.65;4.35;;;;;;;;;;5028790;28;20499;-84
2022/11/04 09:59:09;;;;;;;0.50;0.50;;;;;;;;;;5026563;28;20041;-84
2022/11/04 10:01:39;;;;;;;0.00;0.00;;;;;;;;;;5026694;28;20032;-85
2022/11/04 10:04:08;;;;;;;0.00;0.00;;;;;;;;;;5025540;28;20076;-84
2022/11/04 10:06:43;;;;;;;0.40;0.40;;;;;;;;;;5037852;28;20064;-85
2022/11/04 10:09:13;;;;;;;0.00;0.00;;;;;;;;;;5027090;28;20044;-84
2022/11/04 10:11:54;;;;;;;0.20;0.20;;;;;;;;;;5023625;28;20712;-83
2022/11/04 10:14:35;;;;;;;0.00;0.00;;;;;;;;;;5043035;28;20137;-85
2022/11/04 10:17:11;;;;;;;0.93;0.93;;;;;;;;;;5044186;28;20033;-84
2022/11/04 10:19:56;;;;;;;0.00;0.00;;;;;;;;;;5024097;28;20060;-84
2022/11/04 10:28:54;;;;;;;0.00;0.00;;;;;;;;;;5044068;28;20141;-85
2022/11/04 10:31:20;;;;;;;0.45;0.45;;;;;;;;;;5029286;28;20048;-84
2022/11/04 10:33:56;;;;;;;0.00;0.00;;;;;;;;;;5042498;28;20036;-84
2022/11/04 10:36:23;;;;;;;0.35;0.35;;;;;;;;;;5040859;28;20082;-85
2022/11/04 10:38:51;;;;;;;11.60;3.17;;;;;;;;;;5022005;28;20475;-83
2022/11/04 10:41:25;;;;;;;0.20;0.20;;;;;;;;;;5031041;28;20042;-85
2022/11/04 10:43:53;;;;;;;3.38;3.10;;;;;;;;;;5039374;28;20020;-86
2022/11/04 10:46:31;;;;;;;0.75;0.75;;;;;;;;;;5039454;28;20048;-83
2022/11/04 10:49:05;;;;;;;1.15;1.15;;;;;;;;;;5021696;28;20033;-84
2022/11/04 10:54:44;;;;;;;0.30;0.30;;;;;;;;;;4995427;28;20122;-84
2022/11/04 10:57:12;;;;;;;1.40;1.30;;;;;;;;;;5023241;28;20178;-85
2022/11/04 10:59:48;;;;;;;0.10;0.10;;;;;;;;;;5046616;28;20020;-84
2022/11/04 11:02:18;;;;;;;0.30;0.30;;;;;;;;;;5052276;28;20910;-84
2022/11/04 11:04:46;;;;;;;0.20;0.20;;;;;;;;;;5034923;28;20235;-83
2022/11/04 11:07:18;;;;;;;0.70;0.70;;;;;;;;;;5046808;28;20119;-84
2022/11/04 11:09:59;;;;;;;1.20;1.20;;;;;;;;;;5028621;28;20033;-84
2022/11/04 11:12:29;;;;;;;0.00;0.00;;;;;;;;;;5044992;28;20926;-84
2022/11/04 11:14:56;;;;;;;0.00;0.00;;;;;;;;;;5027735;28;20131;-85
2022/11/04 11:17:35;;;;;;;0.00;0.00;;;;;;;;;;5046981;28;20422;-85
2022/11/04 11:20:07;;;;;;;0.47;0.47;;;;;;;;;;5043825;28;20017;-83
2022/11/04 11:22:37;;;;;;;0.20;0.20;;;;;;;;;;5043093;28;20099;-84
2022/11/04 11:25:27;;;;;;;0.00;0.00;;;;;;;;;;5034811;28;20033;-85
2022/11/04 11:27:56;;;;;;;0.60;0.55;;;;;;;;;;5032086;28;20444;-85
2022/11/04 11:30:24;;;;;;;1.17;1.17;;;;;;;;;;5038954;28;20033;-85
2022/11/04 11:32:54;;;;;;;0.00;0.00;;;;;;;;;;5037507;28;20029;-87
2022/11/04 11:35:22;;;;;;;0.30;0.30;;;;;;;;;;5045757;28;20124;-83
2022/11/04 11:37:49;;;;;;;0.05;0.05;;;;;;;;;;5048860;28;20026;-87
2022/11/04 11:40:30;;;;;;;2.47;2.38;;;;;;;;;;5044760;28;20030;-84
2022/11/04 11:42:59;;;;;;;0.05;0.05;;;;;;;;;;5035431;28;20086;-83
2022/11/04 11:45:28;;;;;;;1.98;0.60;;;;;;;;;;5042589;28;20073;-85
2022/11/04 11:47:55;;;;;;;0.00;0.00;;;;;;;;;;5043015;28;20466;-84
2022/11/04 11:50:32;;;;;;;0.10;0.10;;;;;;;;;;5047027;28;20100;-87
2022/11/04 11:53:13;;;;;;;1.35;1.35;;;;;;;;;;5042133;28;20387;-86
2022/11/04 11:55:41;;;;;;;0.00;0.00;;;;;;;;;;5024072;28;20075;-86
2022/11/04 11:58:26;;;;;;;0.30;0.30;;;;;;;;;;5050350;28;20116;-86
2022/11/04 12:01:06;;;;;;;0.90;0.90;;;;;;;;;;5031566;28;20379;-84
2022/11/04 12:03:36;;;;;;;0.00;0.00;;;;;;;;;;5049906;28;21766;-84
2022/11/04 12:06:02;;;;;;;0.10;0.10;;;;;;;;;;5026479;28;20037;-85
2022/11/04 12:08:38;;;;;;;24.65;17.63;;;;;;;;;;5021254;28;20029;-85
2022/11/04 12:11:13;;;;;;;4.28;4.07;;;;;;;;;;5050990;28;20029;-84
2022/11/04 12:13:52;;;;;;;2.13;2.03;;;;;;;;;;5047689;28;20067;-84
2022/11/04 12:16:31;;;;;;;0.00;0.00;;;;;;;;;;5044633;28;20037;-83
2022/11/04 12:19:10;;;;;;;0.00;0.00;;;;;;;;;;5046942;28;20442;-84
2022/11/04 12:21:49;;;;;;;0.00;0.00;;;;;;;;;;5056033;28;20078;-87
2022/11/04 12:24:16;;;;;;;0.00;0.00;;;;;;;;;;5054815;28;20166;-83
2022/11/04 12:26:59;;;;;;;0.00;0.00;;;;;;;;;;5027299;28;20083;-85
2022/11/04 12:29:35;;;;;;;5.53;5.13;;;;;;;;;;5052002;28;20032;-85
2022/11/04 12:32:20;;;;;;;0.00;0.00;;;;;;;;;;5049691;28;20028;-85
2022/11/04 12:35:06;;;;;;;4.53;4.28;;;;;;;;;;5041194;28;20033;-85
2022/11/04 12:37:52;;;;;;;7.72;3.50;;;;;;;;;;5041105;28;20503;-83
2022/11/04 12:40:27;;;;;;;2.53;2.38;;;;;;;;;;5053577;28;20028;-83
2022/11/04 12:43:06;;;;;;;0.00;0.00;;;;;;;;;;5054501;28;20025;-82
2022/11/04 12:45:32;;;;;;;0.00;0.00;;;;;;;;;;5028837;28;20677;-87
2022/11/04 12:48:16;;;;;;;0.00;0.00;;;;;;;;;;5052387;28;20417;-84
2022/11/04 12:50:44;;;;;;;0.32;0.32;;;;;;;;;;5031750;28;20115;-85
2022/11/04 12:53:19;;;;;;;2.20;2.10;;;;;;;;;;5027599;28;20025;-84
2022/11/04 12:55:48;;;;;;;0.10;0.10;;;;;;;;;;5047766;28;20467;-85
2022/11/04 12:58:26;;;;;;;5.20;4.10;;;;;;;;;;5048009;28;20029;-84
2022/11/04 13:01:16;;;;;;;0.00;0.00;;;;;;;;;;5061833;28;20021;-87
2022/11/04 13:03:50;;;;;;;0.00;0.00;;;;;;;;;;5024119;28;20043;-88
2022/11/04 13:06:36;;;;;;;0.10;0.10;;;;;;;;;;5043021;28;20040;-88
2022/11/04 13:09:09;;;;;;;3.67;3.50;;;;;;;;;;5041395;28;20032;-86
2022/11/04 13:11:39;;;;;;;0.43;0.43;;;;;;;;;;5039525;28;20025;-86
2022/11/04 13:14:12;;;;;;;0.00;0.00;;;;;;;;;;5014401;28;20049;-86
2022/11/04 13:16:40;;;;;;;0.55;0.55;;;;;;;;;;5014732;28;20033;-86
2022/11/04 13:19:15;;;;;;;0.00;0.00;;;;;;;;;;5025567;28;20030;-85
2022/11/04 13:21:42;;;;;;;0.00;0.00;;;;;;;;;;5018955;28;20026;-87
2022/11/04 13:24:30;;;;;;;0.00;0.00;;;;;;;;;;5031694;28;20037;-85
2022/11/04 13:27:11;;;;;;;0.00;0.00;;;;;;;;;;5037397;28;20010;-85
2022/11/04 13:29:38;;;;;;;0.00;0.00;;;;;;;;;;5026069;28;20032;-86
2022/11/04 13:32:11;;;;;;;0.00;0.00;;;;;;;;;;5020398;28;20021;-85
2022/11/04 13:34:43;;;;;;;0.00;0.00;;;;;;;;;;5024988;28;21074;-84
2022/11/04 13:37:12;;;;;;;0.43;0.43;;;;;;;;;;5027585;28;20029;-84
2022/11/04 13:39:50;;;;;;;0.95;0.95;;;;;;;;;;5021703;28;20029;-85
2022/11/04 13:42:19;;;;;;;0.52;0.52;;;;;;;;;;5034243;28;20033;-86
2022/11/04 13:44:47;;;;;;;0.20;0.20;;;;;;;;;;5012344;28;20116;-86
2022/11/04 13:47:23;;;;;;;0.00;0.00;;;;;;;;;;5022571;28;20084;-86
2022/11/04 13:49:56;;;;;;;4.25;4.05;;;;;;;;;;5005814;28;20022;-85
2022/11/04 13:52:28;;;;;;;0.10;0.10;;;;;;;;;;5027286;28;20025;-86
2022/11/04 13:54:59;;;;;;;0.03;0.03;;;;;;;;;;5009317;28;20033;-84
2022/11/04 13:57:27;;;;;;;0.00;0.00;;;;;;;;;;5033370;28;20131;-84
2022/11/04 14:00:12;;;;;;;3.95;3.75;;;;;;;;;;5026868;28;20055;-85
2022/11/04 14:02:57;;;;;;;1.15;1.15;;;;;;;;;;5011480;28;20504;-85
2022/11/04 14:05:23;;;;;;;0.00;0.00;;;;;;;;;;5025308;28;20030;-85
2022/11/04 14:08:01;;;;;;;0.00;0.00;;;;;;;;;;5018295;28;20022;-86
2022/11/04 14:10:46;;;;;;;0.00;0.00;;;;;;;;;;5021548;28;20030;-84
2022/11/04 14:13:37;;;;;;;0.00;0.00;;;;;;;;;;5033423;28;20049;-85
2022/11/04 14:16:04;;;;;;;0.25;0.25;;;;;;;;;;5028115;28;20030;-85
2022/11/04 14:18:43;;;;;;;0.00;0.00;;;;;;;;;;5033007;28;20106;-85
2022/11/04 14:21:11;;;;;;;0.00;0.00;;;;;;;;;;5026714;28;20072;-85
2022/11/04 14:23:39;;;;;;;0.00;0.00;;;;;;;;;;5032998;28;20053;-84
2022/11/04 14:26:10;;;;;;;0.00;0.00;;;;;;;;;;5030891;28;20026;-86
2022/11/04 14:28:38;;;;;;;0.98;0.95;;;;;;;;;;5029239;28;20029;-86
2022/11/04 14:31:07;;;;;;;0.57;0.57;;;;;;;;;;5031592;28;20052;-85
2022/11/04 14:33:38;;;;;;;3.00;2.90;;;;;;;;;;5029387;28;20041;-85
2022/11/04 14:36:27;;;;;;;0.00;0.00;;;;;;;;;;5037175;28;20037;-85
2022/11/04 14:39:03;;;;;;;0.00;0.00;;;;;;;;;;5042918;28;20076;-85
2022/11/04 14:41:51;;;;;;;0.00;0.00;;;;;;;;;;5056721;28;20033;-85
2022/11/04 14:44:20;;;;;;;0.45;0.45;;;;;;;;;;5037173;28;20043;-85
2022/11/04 14:46:51;;;;;;;0.00;0.00;;;;;;;;;;5036604;28;20021;-85
2022/11/04 14:49:40;;;;;;;0.00;0.00;;;;;;;;;;5029269;28;20485;-85
2022/11/04 14:52:16;;;;;;;1.90;1.88;;;;;;;;;;5019507;28;20045;-85
2022/11/04 14:54:47;;;;;;;0.00;0.00;;;;;;;;;;5031872;28;20072;-85
2022/11/04 14:57:15;;;;;;;2.75;2.65;;;;;;;;;;5023329;28;20038;-85
2022/11/04 14:59:41;;;;;;;0.00;0.00;;;;;;;;;;5033298;28;20028;-86
2022/11/04 15:02:22;;;;;;;0.00;0.00;;;;;;;;;;5032913;28;20100;-85
2022/11/04 15:04:54;;;;;;;0.00;0.00;;;;;;;;;;5032974;28;20655;-85
2022/11/04 15:07:25;;;;;;;0.00;0.00;;;;;;;;;;5032079;28;20030;-85
2022/11/04 15:09:52;;;;;;;0.00;0.00;;;;;;;;;;5033685;28;20029;-85
2022/11/04 15:15:23;;;;;;;0.10;0.10;;;;;;;;;;5041804;28;20091;-86
2022/11/04 15:17:49;;;;;;;0.00;0.00;;;;;;;;;;5009138;28;20088;-86
2022/11/04 15:20:23;;;;;;;0.00;0.00;;;;;;;;;;5019592;28;20080;-85
2022/11/04 15:22:49;;;;;;;0.00;0.00;;;;;;;;;;5024690;28;20080;-86
2022/11/04 15:25:16;;;;;;;0.45;0.45;;;;;;;;;;5034363;28;20024;-85
2022/11/04 15:27:42;;;;;;;0.00;0.00;;;;;;;;;;5024319;28;20056;-84
2022/11/04 15:30:19;;;;;;;0.00;0.00;;;;;;;;;;5014712;28;20030;-84
2022/11/04 15:32:59;;;;;;;0.75;0.75;;;;;;;;;;5028820;28;20075;-85
2022/11/04 15:35:26;;;;;;;0.00;0.00;;;;;;;;;;5037878;28;20050;-87
2022/11/04 15:37:55;;;;;;;0.00;0.00;;;;;;;;;;5039317;28;20101;-86
2022/11/04 15:40:22;;;;;;;0.05;0.05;;;;;;;;;;5012507;28;20131;-85
2022/11/04 15:42:50;;;;;;;0.00;0.00;;;;;;;;;;5034008;28;20371;-85
2022/11/04 15:45:24;;;;;;;0.52;0.52;;;;;;;;;;5037475;28;20035;-85
2022/11/04 15:48:13;;;;;;;0.80;0.80;;;;;;;;;;5029637;28;20025;-86
2022/11/04 15:50:40;;;;;;;1.55;1.55;;;;;;;;;;5028561;28;20029;-86
2022/11/04 15:53:09;;;;;;;0.00;0.00;;;;;;;;;;5013777;28;20025;-85
2022/11/04 15:55:37;;;;;;;0.03;0.03;;;;;;;;;;5025668;28;20056;-85
2022/11/04 15:58:06;;;;;;;5.00;4.57;;;;;;;;;;5010672;28;20029;-87
2022/11/04 16:00:33;;;;;;;0.00;0.00;;;;;;;;;;5026325;28;20018;-87
2022/11/04 16:03:02;;;;;;;0.30;0.30;;;;;;;;;;5030233;28;20436;-86